Time;durP1;ratioP1;P1;durP2;ratioP2;P2;SDS_P1;SDS_P2;PMS_P1;PMS_P2;Temp;Humidity;BMP_temperature;BMP_pressure;BME280_temperature;BME280_humidity;BME280_pressure;Samples;Min_cycle;Max_cycle;Signal;HPM_P1;HPM_P2
2022/03/04 00:02:02;;;;;;;26.52;14.70;;;;;;;;;;5032705;27;97504;-76
2022/03/04 00:04:28;;;;;;;26.55;14.85;;;;;;;;;;5030781;28;96885;-76
2022/03/04 00:06:54;;;;;;;32.15;14.93;;;;;;;;;;5018655;27;97295;-76
2022/03/04 00:09:21;;;;;;;26.98;14.75;;;;;;;;;;5009719;28;95878;-75
2022/03/04 00:11:48;;;;;;;28.98;15.07;;;;;;;;;;5010409;28;97036;-76
2022/03/04 00:14:14;;;;;;;30.75;15.93;;;;;;;;;;5009075;28;97108;-76
2022/03/04 00:16:41;;;;;;;28.70;15.13;;;;;;;;;;5009887;28;95453;-75
2022/03/04 00:19:09;;;;;;;31.23;15.85;;;;;;;;;;5009144;28;96774;-75
2022/03/04 00:21:37;;;;;;;32.72;14.98;;;;;;;;;;5012354;28;97362;-75
2022/03/04 00:24:04;;;;;;;29.50;15.20;;;;;;;;;;5008583;28;97278;-75
2022/03/04 00:26:30;;;;;;;34.42;16.08;;;;;;;;;;5009724;28;97205;-75
2022/03/04 00:28:57;;;;;;;29.45;15.55;;;;;;;;;;5008011;28;95653;-76
2022/03/04 00:31:26;;;;;;;30.50;15.50;;;;;;;;;;5009815;28;96851;-76
2022/03/04 00:33:52;;;;;;;29.33;14.30;;;;;;;;;;5008816;28;96536;-76
2022/03/04 00:36:23;;;;;;;30.48;15.50;;;;;;;;;;5019481;28;95430;-76
2022/03/04 00:38:50;;;;;;;29.17;14.77;;;;;;;;;;5015859;28;96852;-75
2022/03/04 00:41:21;;;;;;;32.88;15.00;;;;;;;;;;5009459;28;97383;-75
2022/03/04 00:43:48;;;;;;;29.03;15.40;;;;;;;;;;5012347;28;95586;-74
2022/03/04 00:46:15;;;;;;;34.20;15.32;;;;;;;;;;5007970;28;97312;-75
2022/03/04 00:48:42;;;;;;;30.08;15.25;;;;;;;;;;5008935;28;95932;-75
2022/03/04 00:51:08;;;;;;;33.53;16.05;;;;;;;;;;5018431;28;97434;-75
2022/03/04 00:53:35;;;;;;;30.70;15.00;;;;;;;;;;5029257;28;97365;-75
2022/03/04 00:56:02;;;;;;;30.42;16.20;;;;;;;;;;5029613;28;95736;-73
2022/03/04 00:58:28;;;;;;;28.63;15.45;;;;;;;;;;5028835;28;96809;-75
2022/03/04 01:00:55;;;;;;;29.45;15.65;;;;;;;;;;5028857;27;97245;-77
2022/03/04 01:03:22;;;;;;;30.73;15.50;;;;;;;;;;5028447;27;95674;-77
2022/03/04 01:05:48;;;;;;;32.10;15.93;;;;;;;;;;5015779;28;96759;-75
2022/03/04 01:08:15;;;;;;;30.55;15.57;;;;;;;;;;5009005;28;95606;-76
2022/03/04 01:10:41;;;;;;;30.40;15.68;;;;;;;;;;5008848;28;96770;-74
2022/03/04 01:13:08;;;;;;;29.02;14.20;;;;;;;;;;5008818;28;97658;-73
2022/03/04 01:15:38;;;;;;;32.67;16.05;;;;;;;;;;5009288;28;95776;-74
2022/03/04 01:18:05;;;;;;;32.22;15.55;;;;;;;;;;5008569;28;96752;-76
2022/03/04 01:20:31;;;;;;;30.77;14.75;;;;;;;;;;5009299;28;97417;-74
2022/03/04 01:22:58;;;;;;;29.10;14.90;;;;;;;;;;5009250;28;95471;-77
2022/03/04 01:25:24;;;;;;;30.80;16.30;;;;;;;;;;5008880;28;96724;-76
2022/03/04 01:27:51;;;;;;;29.40;15.60;;;;;;;;;;5010556;28;97419;-77
2022/03/04 01:30:18;;;;;;;32.08;15.63;;;;;;;;;;5008775;28;97196;-76
2022/03/04 01:32:45;;;;;;;33.80;16.05;;;;;;;;;;5010314;28;97347;-75
2022/03/04 01:35:12;;;;;;;27.67;14.77;;;;;;;;;;5013448;28;95727;-74
2022/03/04 01:37:39;;;;;;;29.55;15.43;;;;;;;;;;5007116;28;96773;-77
2022/03/04 01:40:06;;;;;;;29.40;15.73;;;;;;;;;;5008079;28;97525;-75
2022/03/04 01:42:33;;;;;;;38.63;16.63;;;;;;;;;;5008910;28;96162;-76
2022/03/04 01:45:00;;;;;;;31.83;15.02;;;;;;;;;;5008473;28;96827;-76
2022/03/04 01:47:27;;;;;;;32.95;16.38;;;;;;;;;;5009625;28;97479;-77
2022/03/04 01:49:53;;;;;;;36.50;15.93;;;;;;;;;;5012857;28;96082;-75
2022/03/04 01:52:20;;;;;;;31.40;15.48;;;;;;;;;;5008022;28;97131;-76
2022/03/04 01:54:46;;;;;;;31.52;15.40;;;;;;;;;;5008215;28;95472;-77
2022/03/04 01:57:13;;;;;;;31.55;15.07;;;;;;;;;;5008397;28;96934;-76
2022/03/04 01:59:39;;;;;;;30.10;15.65;;;;;;;;;;5024984;28;97410;-76
2022/03/04 02:02:06;;;;;;;29.20;15.20;;;;;;;;;;5027812;27;95391;-77
2022/03/04 02:04:34;;;;;;;30.60;14.95;;;;;;;;;;5008953;27;96633;-76
2022/03/04 02:07:01;;;;;;;37.95;15.35;;;;;;;;;;5006436;28;99688;-76
2022/03/04 02:09:27;;;;;;;41.63;15.63;;;;;;;;;;5008769;28;95358;-76
2022/03/04 02:11:53;;;;;;;34.45;16.15;;;;;;;;;;5011417;28;96848;-75
2022/03/04 02:14:20;;;;;;;28.25;14.65;;;;;;;;;;5009735;28;95449;-75
2022/03/04 02:16:47;;;;;;;33.67;15.50;;;;;;;;;;5012541;28;96884;-76
2022/03/04 02:19:14;;;;;;;32.70;16.17;;;;;;;;;;5030704;28;97775;-75
2022/03/04 02:21:42;;;;;;;31.20;15.82;;;;;;;;;;5011668;28;95362;-75
2022/03/04 02:24:09;;;;;;;34.42;16.48;;;;;;;;;;5010457;28;96914;-76
2022/03/04 02:26:36;;;;;;;32.78;15.80;;;;;;;;;;5011738;28;97008;-76
2022/03/04 02:29:02;;;;;;;29.75;14.55;;;;;;;;;;5017798;28;95698;-75
2022/03/04 02:31:28;;;;;;;32.75;15.13;;;;;;;;;;5031535;28;96784;-75
2022/03/04 02:33:54;;;;;;;35.92;17.38;;;;;;;;;;5011687;28;95334;-76
2022/03/04 02:36:21;;;;;;;30.58;15.65;;;;;;;;;;5010499;28;95826;-75
2022/03/04 02:38:47;;;;;;;31.73;15.77;;;;;;;;;;5011541;28;98102;-75
2022/03/04 02:41:13;;;;;;;30.50;16.08;;;;;;;;;;5010927;28;95661;-76
2022/03/04 02:43:42;;;;;;;34.15;16.88;;;;;;;;;;5010892;28;96782;-75
2022/03/04 02:46:09;;;;;;;30.52;15.65;;;;;;;;;;5011726;28;97509;-75
2022/03/04 02:48:35;;;;;;;38.72;16.33;;;;;;;;;;5011489;28;95515;-75
2022/03/04 02:51:05;;;;;;;35.22;15.50;;;;;;;;;;5010536;28;95819;-75
2022/03/04 02:53:31;;;;;;;29.80;14.52;;;;;;;;;;5014133;28;97339;-75
2022/03/04 02:55:58;;;;;;;28.65;15.55;;;;;;;;;;5009769;28;97195;-75
2022/03/04 02:58:24;;;;;;;33.65;14.95;;;;;;;;;;5018801;28;96583;-74
2022/03/04 03:00:50;;;;;;;29.92;15.13;;;;;;;;;;5031789;27;95372;-74
2022/03/04 03:03:17;;;;;;;32.63;15.55;;;;;;;;;;5021314;27;96831;-75
2022/03/04 03:05:44;;;;;;;28.80;14.73;;;;;;;;;;5011245;28;97416;-75
2022/03/04 03:08:11;;;;;;;35.55;15.32;;;;;;;;;;5010829;28;96102;-75
2022/03/04 03:10:37;;;;;;;29.27;15.05;;;;;;;;;;5010128;28;96879;-74
2022/03/04 03:13:04;;;;;;;34.55;16.25;;;;;;;;;;5019703;28;97350;-75
2022/03/04 03:15:30;;;;;;;31.30;15.15;;;;;;;;;;5034387;28;95168;-75
2022/03/04 03:17:56;;;;;;;39.53;16.88;;;;;;;;;;5021235;28;97616;-75
2022/03/04 03:20:23;;;;;;;31.70;15.50;;;;;;;;;;5010867;28;95303;-76
2022/03/04 03:22:49;;;;;;;29.67;14.65;;;;;;;;;;5010842;28;95641;-75
2022/03/04 03:25:15;;;;;;;33.03;15.80;;;;;;;;;;5009691;28;97492;-75
2022/03/04 03:27:42;;;;;;;32.15;16.13;;;;;;;;;;5011035;28;95604;-76
2022/03/04 03:30:09;;;;;;;32.45;14.85;;;;;;;;;;5010957;28;97222;-76
2022/03/04 03:32:35;;;;;;;30.40;15.95;;;;;;;;;;5009756;28;96313;-75
2022/03/04 03:35:02;;;;;;;30.45;15.32;;;;;;;;;;5009979;28;95597;-75
2022/03/04 03:37:29;;;;;;;29.88;14.95;;;;;;;;;;5013848;28;97034;-75
2022/03/04 03:39:55;;;;;;;30.85;15.32;;;;;;;;;;5010548;28;95758;-74
2022/03/04 03:42:21;;;;;;;33.33;15.05;;;;;;;;;;5010646;28;96806;-75
2022/03/04 03:44:47;;;;;;;32.53;15.60;;;;;;;;;;5010493;28;97412;-75
2022/03/04 03:47:14;;;;;;;33.22;15.77;;;;;;;;;;5009822;28;95655;-75
2022/03/04 03:49:40;;;;;;;33.55;16.00;;;;;;;;;;5009256;28;96842;-76
2022/03/04 03:52:07;;;;;;;31.08;15.15;;;;;;;;;;5009071;28;97359;-75
2022/03/04 03:54:33;;;;;;;32.42;16.45;;;;;;;;;;5010225;28;95477;-75
2022/03/04 03:56:59;;;;;;;37.95;16.25;;;;;;;;;;5027177;28;96996;-75
2022/03/04 03:59:26;;;;;;;33.85;15.80;;;;;;;;;;5032832;28;97919;-75
2022/03/04 04:01:52;;;;;;;35.42;15.48;;;;;;;;;;5030430;27;95987;-76
2022/03/04 04:04:19;;;;;;;31.83;14.40;;;;;;;;;;5027799;28;96271;-75
2022/03/04 04:06:45;;;;;;;28.02;14.02;;;;;;;;;;5009881;28;95385;-75
2022/03/04 04:09:11;;;;;;;31.42;15.73;;;;;;;;;;5010214;28;95690;-76
2022/03/04 04:11:39;;;;;;;34.88;15.38;;;;;;;;;;5010359;28;97352;-77
2022/03/04 04:14:06;;;;;;;38.03;16.50;;;;;;;;;;5009631;28;95348;-74
2022/03/04 04:16:32;;;;;;;33.80;16.65;;;;;;;;;;5010070;28;96790;-75
2022/03/04 04:18:59;;;;;;;31.70;15.90;;;;;;;;;;5009737;28;97480;-75
2022/03/04 04:21:25;;;;;;;32.03;16.20;;;;;;;;;;5012874;28;95874;-76
2022/03/04 04:23:52;;;;;;;37.33;17.15;;;;;;;;;;5009956;28;97837;-76
2022/03/04 04:26:19;;;;;;;29.70;14.68;;;;;;;;;;5017947;28;95523;-76
2022/03/04 04:28:46;;;;;;;30.20;15.43;;;;;;;;;;5009323;28;96789;-76
2022/03/04 04:31:12;;;;;;;34.42;16.27;;;;;;;;;;5009572;28;96886;-76
2022/03/04 04:33:38;;;;;;;35.13;15.82;;;;;;;;;;5009822;28;95513;-75
2022/03/04 04:36:05;;;;;;;34.20;15.82;;;;;;;;;;5007989;28;96727;-76
2022/03/04 04:38:32;;;;;;;34.17;15.88;;;;;;;;;;5009091;28;97231;-76
2022/03/04 04:40:58;;;;;;;33.17;16.23;;;;;;;;;;5032910;28;95759;-76
2022/03/04 04:43:25;;;;;;;34.13;16.60;;;;;;;;;;5029240;28;97400;-75
2022/03/04 04:45:51;;;;;;;37.15;16.60;;;;;;;;;;5019765;28;95465;-75
2022/03/04 04:48:18;;;;;;;33.28;16.55;;;;;;;;;;5022205;28;96904;-75
2022/03/04 04:50:44;;;;;;;31.85;16.00;;;;;;;;;;5029347;28;97234;-75
2022/03/04 04:53:10;;;;;;;38.38;15.65;;;;;;;;;;5029377;28;95462;-75
2022/03/04 04:55:37;;;;;;;35.08;16.60;;;;;;;;;;5018210;27;96774;-75
2022/03/04 04:58:03;;;;;;;33.03;16.17;;;;;;;;;;5011725;28;97359;-74
2022/03/04 05:00:30;;;;;;;34.55;15.90;;;;;;;;;;5016396;28;95371;-76
2022/03/04 05:02:56;;;;;;;34.72;15.95;;;;;;;;;;5030658;27;95781;-77
2022/03/04 05:05:23;;;;;;;38.72;17.45;;;;;;;;;;5001204;28;95430;-75
2022/03/04 05:07:50;;;;;;;37.42;16.60;;;;;;;;;;5009831;28;96094;-75
2022/03/04 05:10:16;;;;;;;33.00;17.20;;;;;;;;;;5008427;28;97394;-76
2022/03/04 05:12:42;;;;;;;36.40;16.83;;;;;;;;;;5009074;28;95394;-76
2022/03/04 05:15:11;;;;;;;36.00;16.67;;;;;;;;;;5008182;28;96574;-76
2022/03/04 05:17:38;;;;;;;35.97;16.25;;;;;;;;;;5006123;28;97519;-75
2022/03/04 05:20:05;;;;;;;34.80;17.40;;;;;;;;;;5007055;28;95788;-73
2022/03/04 05:22:31;;;;;;;35.53;16.67;;;;;;;;;;5001123;28;97083;-76
2022/03/04 05:24:57;;;;;;;35.00;16.67;;;;;;;;;;4992400;28;97352;-76
2022/03/04 05:27:24;;;;;;;32.63;16.20;;;;;;;;;;4989135;28;96882;-76
2022/03/04 05:29:50;;;;;;;32.65;15.40;;;;;;;;;;4996688;28;97313;-75
2022/03/04 05:32:16;;;;;;;35.95;16.05;;;;;;;;;;5008224;28;95394;-77
2022/03/04 05:34:42;;;;;;;32.67;16.15;;;;;;;;;;5008994;28;96650;-75
2022/03/04 05:37:09;;;;;;;31.40;15.98;;;;;;;;;;5006814;28;97452;-75
2022/03/04 05:39:35;;;;;;;36.00;17.45;;;;;;;;;;5016567;28;95409;-76
2022/03/04 05:42:01;;;;;;;36.28;16.58;;;;;;;;;;5016706;28;96870;-75
2022/03/04 05:44:28;;;;;;;35.65;16.33;;;;;;;;;;5008441;28;97276;-76
2022/03/04 05:46:54;;;;;;;34.53;16.08;;;;;;;;;;5011558;28;95453;-75
2022/03/04 05:49:20;;;;;;;41.70;16.95;;;;;;;;;;5008098;28;97406;-75
2022/03/04 05:51:47;;;;;;;30.95;16.40;;;;;;;;;;5007653;28;95689;-75
2022/03/04 05:54:13;;;;;;;37.75;17.33;;;;;;;;;;5008558;28;97150;-75
2022/03/04 05:56:39;;;;;;;35.33;16.95;;;;;;;;;;5008461;28;97721;-75
2022/03/04 05:59:07;;;;;;;35.13;17.63;;;;;;;;;;5007314;28;95622;-76
2022/03/04 06:01:33;;;;;;;35.75;17.25;;;;;;;;;;5008337;28;97514;-75
2022/03/04 06:04:00;;;;;;;36.78;17.92;;;;;;;;;;5006627;28;97511;-75
2022/03/04 06:06:26;;;;;;;34.90;17.00;;;;;;;;;;5008069;28;95394;-75
2022/03/04 06:08:53;;;;;;;32.88;17.02;;;;;;;;;;5011488;28;97158;-76
2022/03/04 06:11:19;;;;;;;36.10;17.70;;;;;;;;;;5012631;28;95239;-75
2022/03/04 06:13:45;;;;;;;31.42;16.75;;;;;;;;;;5007401;28;97169;-75
2022/03/04 06:16:12;;;;;;;37.28;17.85;;;;;;;;;;5007884;28;97451;-76
2022/03/04 06:18:38;;;;;;;34.42;16.45;;;;;;;;;;5008300;28;95445;-75
2022/03/04 06:21:04;;;;;;;33.55;16.45;;;;;;;;;;5010171;28;96763;-74
2022/03/04 06:23:31;;;;;;;36.17;17.27;;;;;;;;;;5028228;28;97461;-74
2022/03/04 18:11:18;;;;;;;21.55;9.90;;;;;;;;;;5033659;27;95415;-76
2022/03/04 18:13:45;;;;;;;24.08;10.70;;;;;;;;;;5023004;28;96144;-75
2022/03/04 18:16:12;;;;;;;24.88;11.50;;;;;;;;;;4950429;28;95678;-75
2022/03/04 18:18:38;;;;;;;28.65;11.93;;;;;;;;;;4953949;28;96803;-76
2022/03/04 18:21:04;;;;;;;20.83;11.85;;;;;;;;;;4948538;28;96389;-76
2022/03/04 18:23:31;;;;;;;26.95;12.35;;;;;;;;;;4938198;28;95615;-76
2022/03/04 18:26:10;;;;;;;23.83;12.05;;;;;;;;;;4936793;28;97825;-77
2022/03/04 18:28:37;;;;;;;26.08;12.20;;;;;;;;;;4946542;28;96896;-77
2022/03/04 18:31:04;;;;;;;22.65;11.77;;;;;;;;;;4946198;28;95981;-75
2022/03/04 18:33:31;;;;;;;23.40;11.60;;;;;;;;;;4941410;28;97337;-74
2022/03/04 18:35:57;;;;;;;21.48;11.45;;;;;;;;;;4954938;28;96132;-74
2022/03/04 18:41:09;;;;;;;23.33;10.50;;;;;;;;;;4953429;28;96590;-76
2022/03/04 18:43:55;;;;;;;20.95;10.70;;;;;;;;;;4942786;28;95628;-76
2022/03/04 18:46:21;;;;;;;21.35;11.90;;;;;;;;;;4950498;28;97326;-76
2022/03/04 18:48:48;;;;;;;22.98;11.50;;;;;;;;;;4949182;28;97458;-75
2022/03/04 18:51:14;;;;;;;21.42;10.65;;;;;;;;;;4946471;28;96106;-74
2022/03/04 18:53:41;;;;;;;21.13;11.45;;;;;;;;;;4949037;28;96818;-74
2022/03/04 18:56:07;;;;;;;22.92;11.70;;;;;;;;;;4941357;28;95295;-76
2022/03/04 18:58:33;;;;;;;23.88;11.85;;;;;;;;;;4941299;28;97030;-76
2022/03/04 19:01:00;;;;;;;26.75;12.43;;;;;;;;;;4940038;28;96266;-77
2022/03/04 19:03:26;;;;;;;25.73;13.27;;;;;;;;;;4959323;28;95825;-76
2022/03/04 19:05:53;;;;;;;26.48;12.43;;;;;;;;;;4952753;28;96795;-75
2022/03/04 19:08:19;;;;;;;27.17;14.30;;;;;;;;;;4940954;28;96909;-75
2022/03/04 19:10:45;;;;;;;26.17;13.23;;;;;;;;;;4943105;28;95618;-74
2022/03/04 19:13:12;;;;;;;25.35;13.65;;;;;;;;;;4975788;28;96844;-74
2022/03/04 19:15:38;;;;;;;26.90;13.70;;;;;;;;;;4948398;28;96464;-75
2022/03/04 19:18:05;;;;;;;28.60;13.95;;;;;;;;;;4953858;28;96878;-75
2022/03/04 19:20:32;;;;;;;27.23;12.50;;;;;;;;;;4946816;28;98773;-73
2022/03/04 19:22:59;;;;;;;26.02;12.45;;;;;;;;;;4938479;28;96217;-76
2022/03/04 19:25:26;;;;;;;22.58;11.98;;;;;;;;;;4942635;28;96993;-74
2022/03/04 19:27:54;;;;;;;26.65;12.68;;;;;;;;;;4935292;28;96317;-74
2022/03/04 19:30:24;;;;;;;25.10;12.80;;;;;;;;;;4929688;28;95944;-73
2022/03/04 19:32:51;;;;;;;25.65;13.55;;;;;;;;;;4941592;28;96734;-74
2022/03/04 19:35:17;;;;;;;25.13;11.82;;;;;;;;;;4940527;28;97277;-75
2022/03/04 19:37:44;;;;;;;21.67;11.80;;;;;;;;;;4938968;28;95194;-77
2022/03/04 19:40:11;;;;;;;26.27;12.60;;;;;;;;;;4936888;28;97813;-75
2022/03/04 19:42:37;;;;;;;24.17;13.15;;;;;;;;;;4934703;28;96066;-75
2022/03/04 19:45:04;;;;;;;24.92;12.40;;;;;;;;;;4919897;28;96807;-76
2022/03/04 19:47:31;;;;;;;21.60;11.73;;;;;;;;;;4927661;28;97678;-76
2022/03/04 19:49:57;;;;;;;27.40;13.65;;;;;;;;;;4927416;28;95701;-76
2022/03/04 19:52:23;;;;;;;25.77;12.25;;;;;;;;;;4925691;28;97307;-77
2022/03/04 19:54:50;;;;;;;23.70;12.48;;;;;;;;;;4928063;28;97332;-74
2022/03/04 19:57:16;;;;;;;22.52;11.88;;;;;;;;;;4935187;28;95337;-75
2022/03/04 19:59:43;;;;;;;25.35;11.80;;;;;;;;;;4932456;28;97145;-77
2022/03/04 20:02:09;;;;;;;23.10;11.73;;;;;;;;;;4944346;28;95667;-76
2022/03/04 20:04:37;;;;;;;25.70;11.60;;;;;;;;;;4930617;28;96809;-76
2022/03/04 20:07:09;;;;;;;23.27;11.85;;;;;;;;;;4928851;28;96281;-74
2022/03/04 20:09:35;;;;;;;23.90;13.13;;;;;;;;;;4929013;28;95642;-76
2022/03/04 20:12:02;;;;;;;25.95;11.95;;;;;;;;;;4946066;28;96643;-76
2022/03/04 20:14:33;;;;;;;26.75;12.98;;;;;;;;;;4937144;28;97830;-76
2022/03/04 20:16:59;;;;;;;22.10;11.25;;;;;;;;;;4931365;28;96142;-76
2022/03/04 20:19:25;;;;;;;23.08;12.30;;;;;;;;;;4929289;28;96649;-76
2022/03/04 20:21:52;;;;;;;25.38;12.85;;;;;;;;;;4940763;28;95880;-75
2022/03/04 20:24:18;;;;;;;27.17;12.80;;;;;;;;;;4942190;28;96956;-76
2022/03/04 20:26:44;;;;;;;24.98;12.32;;;;;;;;;;4925659;28;97359;-75
2022/03/04 20:29:11;;;;;;;23.75;11.88;;;;;;;;;;4930645;28;95478;-76
2022/03/04 20:31:37;;;;;;;24.67;11.88;;;;;;;;;;4946506;28;96845;-76
2022/03/04 20:34:04;;;;;;;36.55;19.73;;;;;;;;;;4944775;28;97416;-75
2022/03/04 20:36:30;;;;;;;25.95;13.18;;;;;;;;;;4948437;28;95428;-75
2022/03/04 20:38:57;;;;;;;27.10;13.25;;;;;;;;;;4927661;28;96825;-75
2022/03/04 20:41:24;;;;;;;26.10;12.27;;;;;;;;;;4924423;28;96794;-76
2022/03/04 20:43:51;;;;;;;25.05;13.20;;;;;;;;;;4934381;28;97100;-75
2022/03/04 20:46:18;;;;;;;25.55;12.43;;;;;;;;;;4934435;28;97451;-77
2022/03/04 20:48:45;;;;;;;26.95;12.27;;;;;;;;;;4937644;28;96590;-76
2022/03/04 20:51:11;;;;;;;25.27;12.57;;;;;;;;;;4934559;28;96863;-75
2022/03/04 20:53:38;;;;;;;24.92;12.88;;;;;;;;;;4935879;28;97300;-74
2022/03/04 20:56:10;;;;;;;28.83;13.23;;;;;;;;;;4933723;28;96294;-74
2022/03/04 20:58:36;;;;;;;37.50;17.33;;;;;;;;;;4933406;28;96828;-75
2022/03/04 21:01:03;;;;;;;26.73;13.85;;;;;;;;;;4926964;28;97451;-75
2022/03/04 21:03:29;;;;;;;34.20;14.07;;;;;;;;;;4934132;28;95776;-75
2022/03/04 21:05:55;;;;;;;29.55;14.52;;;;;;;;;;4920315;28;96301;-76
2022/03/04 21:08:22;;;;;;;29.40;14.85;;;;;;;;;;4929208;28;95419;-75
2022/03/04 21:10:48;;;;;;;28.83;14.57;;;;;;;;;;4931960;28;96811;-76
2022/03/04 21:13:15;;;;;;;46.35;24.08;;;;;;;;;;4928072;28;96183;-77
2022/03/04 21:15:41;;;;;;;29.63;14.48;;;;;;;;;;4944063;28;97340;-75
2022/03/04 21:18:08;;;;;;;26.70;12.98;;;;;;;;;;4933010;28;96737;-74
2022/03/04 21:20:34;;;;;;;24.05;11.38;;;;;;;;;;4934827;28;97656;-74
2022/03/04 21:23:00;;;;;;;24.88;13.35;;;;;;;;;;4937442;28;95360;-74
2022/03/04 21:25:28;;;;;;;35.97;13.70;;;;;;;;;;4934195;28;97182;-75
2022/03/04 21:27:57;;;;;;;29.48;14.40;;;;;;;;;;4929087;28;96011;-75
2022/03/04 21:30:25;;;;;;;25.27;12.65;;;;;;;;;;4940703;28;96980;-74
2022/03/04 21:32:52;;;;;;;25.90;12.15;;;;;;;;;;4949634;28;97746;-76
2022/03/04 21:35:18;;;;;;;27.95;12.63;;;;;;;;;;4931818;28;95785;-76
2022/03/04 21:37:45;;;;;;;26.65;12.32;;;;;;;;;;4948172;28;96798;-77
2022/03/04 21:40:11;;;;;;;24.15;11.80;;;;;;;;;;4927302;28;97802;-77
2022/03/04 21:42:37;;;;;;;28.70;12.15;;;;;;;;;;4910438;28;95554;-76
2022/03/04 21:45:04;;;;;;;26.83;12.65;;;;;;;;;;4909807;28;96819;-76
2022/03/04 21:47:30;;;;;;;30.92;13.23;;;;;;;;;;4913719;28;97370;-76
2022/03/04 21:49:56;;;;;;;24.98;12.45;;;;;;;;;;4918024;28;96855;-76
2022/03/04 21:52:23;;;;;;;30.58;13.18;;;;;;;;;;4948963;28;97757;-77
2022/03/04 21:54:49;;;;;;;27.27;12.65;;;;;;;;;;4949262;28;95492;-76
2022/03/04 21:57:15;;;;;;;29.58;13.90;;;;;;;;;;4948832;28;96727;-76
2022/03/04 21:59:42;;;;;;;28.95;14.10;;;;;;;;;;4946018;28;97404;-76
2022/03/04 22:02:10;;;;;;;39.40;15.15;;;;;;;;;;4929020;28;95537;-76
2022/03/04 22:04:36;;;;;;;35.80;15.32;;;;;;;;;;4929976;28;96777;-76
2022/03/04 22:07:04;;;;;;;29.90;13.55;;;;;;;;;;4940846;28;97400;-73
2022/03/04 22:09:35;;;;;;;33.30;14.82;;;;;;;;;;4948258;28;95507;-74
2022/03/04 22:12:02;;;;;;;31.13;13.23;;;;;;;;;;4929246;28;97265;-74
2022/03/04 22:14:28;;;;;;;34.13;14.20;;;;;;;;;;4930065;28;96189;-77
2022/03/04 22:16:55;;;;;;;31.55;12.85;;;;;;;;;;4929557;28;96984;-76
2022/03/04 22:19:21;;;;;;;27.52;13.13;;;;;;;;;;4929499;28;97007;-76
2022/03/04 22:21:49;;;;;;;29.15;13.00;;;;;;;;;;4926760;28;95432;-76
2022/03/04 22:24:15;;;;;;;30.17;12.73;;;;;;;;;;4938326;28;96794;-76
2022/03/04 22:26:42;;;;;;;34.00;13.23;;;;;;;;;;4947572;28;97393;-76
2022/03/04 22:29:08;;;;;;;29.55;13.20;;;;;;;;;;4951958;28;95404;-76
2022/03/04 22:31:34;;;;;;;26.05;12.50;;;;;;;;;;4936125;28;97337;-77
2022/03/04 22:34:01;;;;;;;28.77;13.60;;;;;;;;;;4929565;28;95437;-77
2022/03/04 22:36:27;;;;;;;25.83;12.98;;;;;;;;;;4929604;28;96712;-76
2022/03/04 22:38:53;;;;;;;27.85;12.77;;;;;;;;;;4932942;28;97381;-77
2022/03/04 22:41:20;;;;;;;27.05;13.07;;;;;;;;;;4938500;28;95309;-76
2022/03/04 22:43:46;;;;;;;29.73;12.77;;;;;;;;;;4929498;28;97046;-77
2022/03/04 22:46:13;;;;;;;30.10;13.13;;;;;;;;;;4928569;28;97295;-77
2022/03/04 22:48:39;;;;;;;31.35;12.90;;;;;;;;;;4929456;28;95398;-76
2022/03/04 22:51:06;;;;;;;33.80;14.30;;;;;;;;;;4927254;28;95730;-77
2022/03/04 22:53:32;;;;;;;32.25;13.50;;;;;;;;;;4916522;28;96028;-77
2022/03/04 22:55:58;;;;;;;33.42;14.55;;;;;;;;;;4948863;28;96808;-77
2022/03/04 22:58:25;;;;;;;35.60;15.05;;;;;;;;;;4951898;28;97270;-76
2022/03/04 23:00:54;;;;;;;27.10;13.35;;;;;;;;;;4946284;28;95810;-76
2022/03/04 23:08:51;;;;;;;35.53;13.80;;;;;;;;;;4928588;28;95326;-76
2022/03/04 23:11:23;;;;;;;28.88;13.60;;;;;;;;;;4943798;28;97318;-77
2022/03/04 23:13:49;;;;;;;;;;;;;;;;;;4935500;28;97450;-77
2022/03/04 23:16:16;;;;;;;32.88;13.93;;;;;;;;;;4931183;28;124746;-77
2022/03/04 23:18:42;;;;;;;29.60;12.98;;;;;;;;;;4932072;28;97341;-77
2022/03/04 23:21:12;;;;;;;29.90;13.63;;;;;;;;;;4931367;28;95372;-76
2022/03/04 23:23:40;;;;;;;33.08;14.18;;;;;;;;;;4929627;28;97143;-76
2022/03/04 23:26:06;;;;;;;28.60;12.88;;;;;;;;;;4951457;28;97351;-77
2022/03/04 23:28:38;;;;;;;32.97;14.25;;;;;;;;;;4951501;28;95337;-76
2022/03/04 23:31:05;;;;;;;30.77;12.68;;;;;;;;;;4951245;28;96792;-76
2022/03/04 23:33:31;;;;;;;33.05;13.15;;;;;;;;;;4931465;28;97224;-75
2022/03/04 23:35:58;;;;;;;29.75;14.52;;;;;;;;;;4935049;28;95597;-74
2022/03/04 23:38:26;;;;;;;31.75;13.95;;;;;;;;;;4939954;28;97212;-72
2022/03/04 23:40:57;;;;;;;31.65;13.25;;;;;;;;;;4950865;28;95719;-73
2022/03/04 23:43:24;;;;;;;32.88;14.07;;;;;;;;;;4932327;28;96725;-76
2022/03/04 23:45:50;;;;;;;30.42;13.63;;;;;;;;;;4931807;28;97427;-75
2022/03/04 23:48:21;;;;;;;33.03;13.73;;;;;;;;;;4930761;28;95517;-75
2022/03/04 23:50:48;;;;;;;35.75;14.20;;;;;;;;;;4921637;28;97354;-74
2022/03/04 23:53:14;;;;;;;27.75;12.75;;;;;;;;;;4929787;28;97367;-74
2022/03/04 23:55:40;;;;;;;32.35;13.77;;;;;;;;;;4950881;28;95409;-74
2022/03/04 23:58:07;;;;;;;33.75;14.40;;;;;;;;;;4953844;28;96920;-75
